createdAt,value
2024-02-09T00:02:09.407Z,2.38
2024-02-09T00:12:12.394Z,1.95
2024-02-09T00:22:17.322Z,1.98
2024-02-09T00:32:20.500Z,1.80
2024-02-09T00:42:25.010Z,2.63
2024-02-09T00:52:28.458Z,2.15
2024-02-09T01:02:32.834Z,1.55
2024-02-09T01:12:53.293Z,1.92
2024-02-09T01:23:14.934Z,2.20
2024-02-09T01:33:35.376Z,1.58
2024-02-09T01:43:57.261Z,1.10
2024-02-09T01:54:17.689Z,0.98
2024-02-09T02:04:39.376Z,1.05
2024-02-09T02:14:59.529Z,1.58
2024-02-09T02:25:24.344Z,0.68
2024-02-09T02:35:44.871Z,0.77
2024-02-09T02:45:49.869Z,0.60
2024-02-09T02:56:10.330Z,0.57
2024-02-09T03:06:14.609Z,0.70
2024-02-09T03:16:18.552Z,1.08
2024-02-09T03:26:24.197Z,0.82
2024-02-09T03:36:27.018Z,1.10
2024-02-09T03:46:33.061Z,0.80
2024-02-09T03:56:35.902Z,0.90
2024-02-09T04:06:41.440Z,0.77
2024-02-09T04:16:44.353Z,0.93
2024-02-09T04:26:49.673Z,0.57
2024-02-09T04:36:57.259Z,0.63
2024-02-09T04:47:02.076Z,0.70
2024-02-09T04:57:05.086Z,0.93
2024-02-09T05:07:09.269Z,0.90
2024-02-09T05:17:12.576Z,1.27
2024-02-09T05:27:16.761Z,0.98
2024-02-09T05:37:19.729Z,1.15
2024-02-09T05:47:24.034Z,1.30
2024-02-09T05:57:28.105Z,1.30
2024-02-09T06:07:32.803Z,1.20
2024-02-09T06:17:35.729Z,1.17
2024-02-09T06:27:39.907Z,1.33
2024-02-09T06:37:42.823Z,1.60
2024-02-09T06:47:47.121Z,1.95
2024-02-09T06:57:51.715Z,1.83
2024-02-09T07:07:56.104Z,1.58
2024-02-09T07:18:01.218Z,1.83
2024-02-09T07:28:05.928Z,2.35
2024-02-09T07:38:08.822Z,2.25
2024-02-09T07:48:13.062Z,2.42
2024-02-09T07:58:18.420Z,2.08
2024-02-09T08:08:22.728Z,2.25
2024-02-09T08:18:26.417Z,1.90
2024-02-09T08:28:30.711Z,1.67
2024-02-09T08:38:35.231Z,1.50
2024-02-09T08:48:39.934Z,2.15
2024-02-09T08:58:43.185Z,1.25
2024-02-09T09:08:47.712Z,1.27
2024-02-09T09:18:53.343Z,1.90
2024-02-09T09:28:58.559Z,1.13
2024-02-09T09:39:06.903Z,1.75
2024-02-09T09:49:12.180Z,1.65
2024-02-09T09:59:15.139Z,1.20
2024-02-09T10:09:19.476Z,1.05
2024-02-09T10:19:22.390Z,1.40
2024-02-09T10:29:28.457Z,1.48
2024-02-09T10:39:31.394Z,1.10
2024-02-09T10:49:38.136Z,1.48
2024-02-09T10:59:42.431Z,1.30
2024-02-09T11:09:47.379Z,1.75
2024-02-09T11:19:50.692Z,1.70
2024-02-09T11:29:54.986Z,1.38
2024-02-09T11:39:57.904Z,1.90
2024-02-09T11:50:02.269Z,1.35
2024-02-09T12:00:06.988Z,1.20
2024-02-09T12:10:11.748Z,1.70
2024-02-09T12:20:16.127Z,1.20
2024-02-09T12:30:21.835Z,1.50
2024-02-09T12:40:24.933Z,1.17
2024-02-09T12:50:30.323Z,1.08
2024-02-09T13:00:34.858Z,1.38
2024-02-09T13:10:39.293Z,1.42
2024-02-09T13:20:44.241Z,2.28
2024-02-09T13:30:49.631Z,1.60
2024-02-09T13:40:53.510Z,1.55
2024-02-09T13:50:58.670Z,1.48
2024-02-09T14:01:01.562Z,1.80
2024-02-09T14:11:06.004Z,0.98
2024-02-09T14:21:08.868Z,1.15
2024-02-09T14:31:13.226Z,1.70
2024-02-09T14:41:16.658Z,1.60
2024-02-09T14:51:22.792Z,1.63
2024-02-09T15:01:25.850Z,1.50
2024-02-09T15:11:30.173Z,1.10
2024-02-09T15:21:33.190Z,1.27
2024-02-09T15:31:38.937Z,2.40
2024-02-09T15:41:44.388Z,1.52
2024-02-09T15:51:48.668Z,1.20
2024-02-09T16:01:54.883Z,2.40
2024-02-09T16:11:59.876Z,1.60
2024-02-09T16:22:02.774Z,1.73
2024-02-09T16:32:07.677Z,1.42
2024-02-09T16:42:10.617Z,1.30
2024-02-09T16:52:14.802Z,1.67
2024-02-09T17:02:17.776Z,2.28
2024-02-09T17:12:21.985Z,1.73
2024-02-09T17:22:25.618Z,2.25
2024-02-09T17:32:31.462Z,2.30
2024-02-09T17:42:34.373Z,1.98
2024-02-09T17:52:39.124Z,1.38
2024-02-09T18:02:44.043Z,1.80
2024-02-09T18:12:48.409Z,1.30
2024-02-09T18:22:51.288Z,1.45
2024-02-09T18:32:57.396Z,1.30
2024-02-09T18:43:00.314Z,1.38
2024-02-09T18:53:04.700Z,1.60
2024-02-09T19:03:08.437Z,1.60
2024-02-09T19:13:15.902Z,1.55
2024-02-09T19:23:18.897Z,1.67
2024-02-09T19:33:23.837Z,1.45
2024-02-09T19:43:26.759Z,1.55
2024-02-09T19:53:31.858Z,1.02
2024-02-09T20:03:34.699Z,1.00
2024-02-09T20:13:38.974Z,2.00
2024-02-09T20:23:44.483Z,0.70
2024-02-09T20:33:50.150Z,1.02
2024-02-09T20:43:53.528Z,0.82
2024-02-09T20:53:59.049Z,0.77
2024-02-09T21:04:02.266Z,0.75
2024-02-09T21:14:06.490Z,1.10
2024-02-09T21:24:10.067Z,0.57
2024-02-09T21:34:14.822Z,0.80
2024-02-09T21:44:20.482Z,0.90
2024-02-09T21:54:25.186Z,1.00
2024-02-09T22:04:28.633Z,0.70
2024-02-09T22:14:34.049Z,0.60
2024-02-09T22:24:37.676Z,0.60
2024-02-09T22:34:44.831Z,0.47
2024-02-09T22:44:48.069Z,0.40
2024-02-09T22:54:54.676Z,0.63
2024-02-09T23:04:58.050Z,0.40
2024-02-09T23:15:02.338Z,0.50
2024-02-09T23:25:05.746Z,0.30
2024-02-09T23:35:10.812Z,0.20
2024-02-09T23:45:19.295Z,0.40
2024-02-09T23:55:24.360Z,0.50
